Map

Track Data

SID SEASON NUMBER BASIN SUBBASIN NAME ISO_TIME NATURE LAT LON WMO_WIND WMO_PRES WMO_AGENCY TRACK_TYPE DIST2LAND LANDFALL IFLAG USA_AGENCY USA_ATCF_ID USA_LAT USA_LON USA_RECORD USA_STATUS USA_WIND USA_PRES USA_SSHS USA_R34_NE USA_R34_SE USA_R34_SW USA_R34_NW USA_R50_NE USA_R50_SE USA_R50_SW USA_R50_NW USA_R64_NE USA_R64_SE USA_R64_SW USA_R64_NW USA_POCI USA_ROCI USA_RMW USA_EYE TOKYO_LAT TOKYO_LON TOKYO_GRADE TOKYO_WIND TOKYO_PRES TOKYO_R50_DIR TOKYO_R50_LONG TOKYO_R50_SHORT TOKYO_R30_DIR TOKYO_R30_LONG TOKYO_R30_SHORT TOKYO_LAND CMA_LAT CMA_LON CMA_CAT CMA_WIND CMA_PRES HKO_LAT HKO_LON HKO_CAT HKO_WIND HKO_PRES NEWDELHI_LAT NEWDELHI_LON NEWDELHI_GRADE NEWDELHI_WIND NEWDELHI_PRES NEWDELHI_CI NEWDELHI_DP NEWDELHI_POCI REUNION_LAT REUNION_LON REUNION_TYPE REUNION_WIND REUNION_PRES REUNION_TNUM REUNION_CI REUNION_RMW REUNION_R34_NE REUNION_R34_SE REUNION_R34_SW REUNION_R34_NW REUNION_R50_NE REUNION_R50_SE REUNION_R50_SW REUNION_R50_NW REUNION_R64_NE REUNION_R64_SE REUNION_R64_SW REUNION_R64_NW BOM_LAT BOM_LON BOM_TYPE BOM_WIND BOM_PRES BOM_TNUM BOM_CI BOM_RMW BOM_R34_NE BOM_R34_SE BOM_R34_SW BOM_R34_NW BOM_R50_NE BOM_R50_SE BOM_R50_SW BOM_R50_NW BOM_R64_NE BOM_R64_SE BOM_R64_SW BOM_R64_NW BOM_ROCI BOM_POCI BOM_EYE BOM_POS_METHOD BOM_PRES_METHOD NADI_LAT NADI_LON NADI_CAT NADI_WIND NADI_PRES WELLINGTON_LAT WELLINGTON_LON WELLINGTON_WIND WELLINGTON_PRES DS824_LAT DS824_LON DS824_STAGE DS824_WIND DS824_PRES TD9636_LAT TD9636_LON TD9636_STAGE TD9636_WIND TD9636_PRES TD9635_LAT TD9635_LON TD9635_WIND TD9635_PRES TD9635_ROCI NEUMANN_LAT NEUMANN_LON NEUMANN_CLASS NEUMANN_WIND NEUMANN_PRES MLC_LAT MLC_LON MLC_CLASS MLC_WIND MLC_PRES USA_GUST BOM_GUST BOM_GUST_PER REUNION_GUST REUNION_GUST_PER USA_SEAHGT USA_SEARAD_NE USA_SEARAD_SE USA_SEARAD_SW USA_SEARAD_NW STORM_SPEED STORM_DIR
1964184N22133 1964 39 WP MM BETTY 1964-07-02 00:00:00 TS 21.5667 133.467 1000 tokyo main 1086 1052 OOO______OOO__ jtwc_wp WP051964 21.8000 133.700 30 -1 21.1000 133.000 2 1000 0 0 0 21.1000 133.000 0 1010 21.8000 133.700 TC 30 21.8000 133.700 1 30 21.8000 133.700 30 992 60 9 296
1964184N22133 1964 39 WP MM BETTY 1964-07-02 03:00:00 TS 21.7694 133.012 main 1052 1031 PPP______PPP__ WP051964 21.8950 133.137 35 0 21.5322 132.832 2 999 0 0 21.4822 132.832 0 1007 21.8950 133.137 TC 35 21.9167 132.992 1 38 21.8950 133.137 35 991 90 10 293
1964184N22133 1964 39 WP MM BETTY 1964-07-02 06:00:00 TS 21.9567 132.463 998 tokyo main 1020 1000 OOOO_____OPO__ jtwc_wp WP051964 22.0000 132.500 40 0 21.9000 132.500 2 998 0 0 0 21.8000 132.500 1 29 1004 22.0000 132.400 TS 35 990 22.0000 132.500 TC 40 22.0255 132.296 1 47 22.0000 132.500 40 990 120 12 286
1964184N22133 1964 39 WP MM BETTY 1964-07-02 09:00:00 TS 22.0999 131.768 main 1000 973 PPPP_____PPP__ WP051964 22.1152 131.750 52 0 22.1529 131.903 2 997 0 0 22.0029 131.903 1 33 1001 22.0534 131.615 TS 40 990 22.1152 131.750 TC 52 22.1214 131.628 1 56 22.1152 131.750 52 990 120 13 280
1964184N22133 1964 39 WP MM BETTY 1964-07-02 12:00:00 TS 22.1889 131.048 996 tokyo main 963 914 OOOO_____OOO__ jtwc_wp WP051964 22.2000 131.000 65 1 22.3000 131.200 9 996 0 0 0 22.1000 131.200 2 38 999 22.1000 130.900 TS 45 990 22.2000 131.000 TC 65 22.2000 131.000 3 65 22.2000 131.000 65 991 120 13 275
1964184N22133 1964 39 WP MM BETTY 1964-07-02 15:00:00 TS 22.2063 130.423 main 904 855 PPPP_____PPP__ WP051964 22.1922 130.355 70 1 22.3648 130.585 9 993 0 0 22.0998 130.584 2 43 999 22.1421 130.305 TS 47 988 22.1922 130.355 TC 70 22.2608 130.423 3 70 22.1922 130.355 70 989 120 11 272
1964184N22133 1964 39 WP MM BETTY 1964-07-02 18:00:00 TS 22.2312 129.870 990 tokyo main 855 803 OOOO_____OPO__ jtwc_wp WP051964 22.2000 129.800 75 1 22.4000 130.000 9 990 0 0 0 22.1000 130.000 3 48 999 22.2000 129.800 STS 50 986 22.2000 129.800 TC 75 22.3186 129.889 3 75 22.2000 129.800 75 988 120 10 277
1964184N22133 1964 39 WP MM BETTY 1964-07-02 21:00:00 TS 22.3280 129.356 main 803 747 PPPP_____PPP__ WP051964 22.3197 129.320 80 1 22.4699 129.420 9 988 0 0 22.2050 129.413 3 58 994 22.2699 129.312 STS 55 988 22.3197 129.320 TC 80 22.3922 129.385 3 80 22.3197 129.320 80 989 120 9 286
1964184N22133 1964 39 WP MM BETTY 1964-07-03 00:00:00 TS 22.4857 128.900 986 tokyo main 747 701 OOOO_____OOO__ jtwc_wp WP051964 22.5000 128.900 85 2 22.6000 128.900 9 986 0 0 0 22.4000 128.900 4 68 990 22.4000 128.900 STS 60 990 22.5000 128.900 TC 85 22.5000 128.900 4 85 22.5000 128.900 85 990 120 9 295
1964184N22133 1964 39 WP MM BETTY 1964-07-03 03:00:00 TS 22.6969 128.505 main 701 655 PPPP_____PPP__ WP051964 22.6922 128.515 92 2 22.8347 128.485 9 985 0 0 22.6921 128.535 4 72 987 22.6198 128.577 STS 65 985 22.6922 128.515 TC 92 22.6556 128.395 4 88 22.6922 128.515 92 987 150 9 302
1964184N22133 1964 39 WP MM BETTY 1964-07-03 06:00:00 TS 22.9353 128.115 985 tokyo main 655 610 OOOO_____OPO__ jtwc_wp WP051964 22.9000 128.100 100 3 23.1000 128.100 9 985 0 0 0 23.0000 128.200 4 77 985 22.9000 128.300 T 70 981 22.9000 128.100 TC 100 22.8472 127.905 4 92 22.9000 128.100 100 984 180 9 300
1964184N22133 1964 39 WP MM BETTY 1964-07-03 09:00:00 TS 23.1554 127.651 main 607 552 PPPP_____PPP__ WP051964 23.0927 127.550 100 3 23.3149 127.665 9 985 0 0 23.2150 127.765 4 77 983 23.2147 128.037 T 70 975 23.0927 127.550 TC 100 23.0651 127.438 4 96 23.0927 127.550 100 982 150 10 297
1964184N22133 1964 39 WP MM BETTY 1964-07-03 12:00:00 TS 23.3714 127.171 985 tokyo main 552 497 OOOO_____OOO__ jtwc_wp WP051964 23.3000 127.000 100 3 23.5000 127.200 9 985 0 0 0 23.4000 127.300 4 77 982 23.5000 127.700 T 70 970 23.3000 127.000 TC 100 23.3000 127.000 4 100 23.3000 127.000 100 980 120 10 296
1964184N22133 1964 39 WP MM BETTY 1964-07-03 15:00:00 TS 23.5787 126.719 main 497 452 PPPP_____PPP__ WP051964 23.5423 126.570 100 3 23.6425 126.700 9 982 0 0 23.5849 126.850 4 77 980 23.6575 127.202 T 70 972 23.5423 126.570 TC 100 23.5394 126.572 4 100 23.5423 126.570 100 979 150 9 298
1964184N22133 1964 39 WP MM BETTY 1964-07-03 18:00:00 TS 23.7989 126.282 980 tokyo main 452 409 OOOO_____OPO__ jtwc_wp WP051964 23.8000 126.200 100 3 23.8000 126.200 9 980 0 0 0 23.8000 126.400 4 77 979 23.8000 126.600 T 70 975 23.8000 126.200 TC 100 23.7922 126.175 4 100 23.8000 126.200 100 978 180 9 300
1964184N22133 1964 39 WP MM BETTY 1964-07-03 21:00:00 TS 24.0538 125.836 main 397 362 PPPP_____PPP__ WP051964 24.0575 125.827 100 3 24.0350 125.713 9 977 0 0 24.1000 125.928 4 82 976 24.0204 125.913 T 70 975 24.0575 125.827 TC 100 24.0489 125.816 4 100 24.0575 125.827 100 976 150 9 304
1964184N22133 1964 39 WP MM BETTY 1964-07-04 00:00:00 TS 24.3143 125.443 975 tokyo main 352 327 OOOO_____OOO__ jtwc_wp WP051964 24.3000 125.500 100 3 24.3000 125.300 9 975 0 0 0 24.4000 125.500 5 87 974 24.3000 125.300 T 70 975 24.3000 125.500 TC 100 24.3000 125.500 4 100 24.3000 125.500 100 974 120 8 308
1964184N22133 1964 39 WP MM BETTY 1964-07-04 03:00:00 TS 24.5476 125.145 main 317 293 PPPP_____PPP__ WP051964 24.4999 125.227 100 3 24.5423 125.012 9 972 0 0 24.6073 125.170 5 87 971 24.6646 124.917 T 70 970 24.4999 125.227 TC 100 24.5195 125.231 4 100 24.4999 125.227 100 970 120 7 314
1964184N22133 1964 39 WP MM BETTY 1964-07-04 06:00:00 TS 24.7763 124.915 970 tokyo main 293 271 OOOO_____OPO__ jtwc_wp WP051964 24.7000 125.000 100 3 24.8000 124.800 9 970 0 0 0 24.8000 124.900 5 87 968 25.0000 124.700 T 70 965 24.7000 125.000 TC 100 24.7344 125.004 4 100 24.7000 125.000 100 966 120 6 319
1964184N22133 1964 39 WP MM BETTY 1964-07-04 09:00:00 TS 25.0067 124.711 main 271 252 PPPP_____PPP__ WP051964 24.9349 124.792 100 3 25.0925 124.585 9 967 0 0 25.0350 124.627 5 92 966 25.1573 124.585 T 70 962 24.9349 124.792 TC 100 24.9571 124.800 4 100 24.9349 124.792 100 963 120 6 324
1964184N22133 1964 39 WP MM BETTY 1964-07-04 12:00:00 TS 25.2571 124.529 965 tokyo main 253 237 OOOO_____OOO__ jtwc_wp WP051964 25.2000 124.600 100 3 25.4000 124.400 9 965 0 0 0 25.3000 124.400 5 97 964 25.3000 124.500 T 70 960 25.2000 124.600 TC 100 25.2000 124.600 4 100 25.2000 124.600 100 960 120 6 328
1964184N22133 1964 39 WP MM BETTY 1964-07-04 15:00:00 TS 25.5486 124.337 main 237 234 PPPP_____PPP__ WP051964 25.4924 124.407 100 3 25.7000 124.235 9 962 0 0 25.5924 124.227 5 97 962 25.6001 124.308 T 70 960 25.4924 124.407 TC 100 25.4703 124.367 4 101 25.4924 124.407 100 959 150 7 330
1964184N22133 1964 39 WP MM BETTY 1964-07-04 18:00:00 TS 25.8518 124.148 960 tokyo main 233 229 OOOO_____OPO__ jtwc_wp WP051964 25.8000 124.200 100 3 26.0000 124.100 9 960 0 0 0 25.9000 124.100 5 97 960 25.9000 124.100 T 70 960 25.8000 124.200 TC 100 25.7625 124.135 4 102 25.8000 124.200 100 959 180 7 330
1964184N22133 1964 39 WP MM BETTY 1964-07-04 21:00:00 TS 26.1330 123.956 main 235 226 PPPP_____PPP__ WP051964 26.1001 123.943 102 3 26.3150 124.000 9 960 0 0 26.2000 124.000 5 101 959 26.0424 123.957 T 72 960 26.1001 123.943 TC 102 26.0734 123.910 4 103 26.1001 123.943 102 958 180 7 329
1964184N22133 1964 39 WP MM BETTY 1964-07-05 00:00:00 TS 26.4143 123.771 960 tokyo main 238 238 OOOO_____OOO__ jtwc_wp WP051964 26.4000 123.700 105 3 26.6000 123.900 9 960 0 0 0 26.5000 123.900 6 106 958 26.2000 123.800 T 75 960 26.4000 123.700 TC 105 26.4000 123.700 4 105 26.4000 123.700 105 958 180 7 331
1964184N22133 1964 39 WP MM BETTY 1964-07-05 03:00:00 TS 26.6987 123.602 main 248 228 PPPP_____PPP__ WP051964 26.6849 123.542 107 3 26.8000 123.757 9 965 0 0 26.7999 123.780 6 106 958 26.5051 123.558 T 77 960 26.6849 123.542 TC 107 26.7315 123.490 4 105 26.6849 123.542 107 959 180 7 333
1964184N22133 1964 39 WP MM BETTY 1964-07-05 06:00:00 TS 27.0111 123.428 970 tokyo main 228 192 OOOO_____OPO__ jtwc_wp WP051964 27.0000 123.400 110 3 27.0000 123.600 9 970 0 0 0 27.1000 123.600 6 106 958 26.9000 123.300 T 80 960 27.0000 123.400 TC 110 27.0775 123.298 4 105 27.0000 123.400 110 960 180 7 334
1964184N22133 1964 39 WP MM BETTY 1964-07-05 09:00:00 TS 27.3685 123.238 main 186 152 PPPP_____PPP__ WP051964 27.3851 123.193 107 3 27.2620 123.524 9 975 0 0 27.3925 123.330 6 96 965 27.3349 123.100 T 77 960 27.3851 123.193 TC 107 27.4347 123.131 4 105 27.3851 123.193 107 964 150 8 335
1964184N22133 1964 39 WP MM BETTY 1964-07-05 12:00:00 TS 27.7571 123.029 980 tokyo main 148 119 OOOO_____OOO__ jtwc_wp WP051964 27.8000 123.000 105 3 27.6000 123.300 9 980 0 0 0 27.7000 123.000 5 87 973 27.8000 122.900 T 75 960 27.8000 123.000 TC 105 27.8000 123.000 4 105 27.8000 123.000 105 968 120 9 331
1964184N22133 1964 39 WP MM BETTY 1964-07-05 15:00:00 TS 28.1474 122.748 main 109 90 PPPP_____PPP__ WP051964 28.2075 122.870 100 3 28.0215 122.585 9 985 0 0 28.0127 122.561 5 77 979 28.2726 122.613 T 70 965 28.2075 122.870 TC 100 28.1027 122.870 4 101 28.2075 122.870 100 971 120 9 332
1964184N22133 1964 39 WP MM BETTY 1964-07-05 18:00:00 TS 28.5460 122.555 990 tokyo main 90 65 OOOO_____OPO__ jtwc_wp WP051964 28.6000 122.800 95 2 28.5000 122.000 9 990 0 0 0 28.4000 122.300 4 68 985 28.7000 122.400 T 65 970 28.6000 122.800 TC 95 28.4223 122.782 4 97 28.6000 122.800 95 975 120 8 349
1964184N22133 1964 39 WP MM BETTY 1964-07-05 21:00:00 TS 28.9233 122.585 main 67 59 PPPP_____PPP__ WP051964 28.9200 122.770 92 2 28.9924 122.163 9 990 0 0 28.9275 122.487 4 58 990 28.9774 122.382 T 62 972 28.9200 122.770 TC 92 28.8058 122.753 4 93 28.9200 122.770 92 978 120 8 11
1964184N22133 1964 39 WP MM BETTY 1964-07-06 00:00:00 TS 29.3571 122.743 990 tokyo main 71 71 OOOO_____OOO__ jtwc_wp WP051964 29.3000 122.800 90 2 29.5000 122.600 9 990 0 0 0 29.5000 122.900 3 48 995 29.3000 122.500 STS 60 975 29.3000 122.800 TC 90 29.3000 122.800 4 90 29.3000 122.800 90 982 120 10 15
1964184N22133 1964 39 WP MM BETTY 1964-07-06 03:00:00 TS 29.8813 122.887 main 96 96 PPPP_____PPP__ WP051964 29.8099 122.849 77 1 29.9547 122.829 9 990 0 0 29.9696 123.249 3 43 996 29.8774 122.648 STS 57 980 29.8099 122.849 TC 77 29.9376 122.936 4 81 29.8099 122.849 77 985 120 12 15
1964184N22133 1964 39 WP MM BETTY 1964-07-06 06:00:00 TS 30.5223 123.098 990 tokyo main 122 119 OOOO_____OPO__ jtwc_wp WP051964 30.5000 123.000 65 1 30.5000 123.100 9 990 0 0 0 30.5000 123.700 2 38 998 30.5000 122.900 STS 55 985 30.5000 123.000 TC 65 30.6933 123.146 4 72 30.5000 123.000 65 989 120 15 17
1964184N22133 1964 39 WP MM BETTY 1964-07-06 09:00:00 TS 31.2680 123.385 main 148 145 PPPP_____PPP__ WP051964 31.4119 123.246 60 0 31.2402 123.527 9 990 0 0 31.1985 124.302 2 33 1001 30.7691 123.187 STS 50 990 31.4119 123.246 TC 60 31.5274 123.408 4 63 31.4119 123.246 60 992 120 17 21
1964184N22133 1964 39 WP MM BETTY 1964-07-06 12:00:00 TS 32.1444 123.839 990 tokyo main 184 168 OOOO_____OOO__ jtwc_wp WP051964 32.4000 123.700 55 0 32.1000 124.000 9 990 0 0 0 32.0000 125.000 1 29 1005 31.4000 123.700 TS 45 995 32.4000 123.700 TC 55 32.4000 123.700 2 55 32.4000 123.700 55 996 120 21 26
1964184N22133 1964 39 WP MM BETTY 1964-07-06 15:00:00 TS 33.1271 124.443 main 168 123 PP_P_____P_P__ WP051964 33.2892 124.419 42 0 32.9849 124.416 9 993 0 0 1 32.9255 124.573 TS 35 995 33.2892 124.419 TC 42 2 33.2892 124.419 42 999 90 22 28
1964184N22133 1964 39 WP MM BETTY 1964-07-06 18:00:00 TS 34.1125 125.100 996 tokyo main 123 96 OO_O_____O_O__ jtwc_wp WP051964 34.1000 125.300 30 -1 33.9000 124.800 9 996 0 0 0 35.0000 125.700 TD 25 996 34.1000 125.300 TC 30 2 34.1000 125.300 30 1003 60 18 20
1964184N22133 1964 39 WP MM BETTY 1964-07-06 21:00:00 NR 34.8074 125.173 main 96 75 _P____________ WP051964 -1 34.8074 125.173 9 998 0 0 TD TC 2 16 12
1964184N22133 1964 39 WP MM BETTY 1964-07-07 00:00:00 TS 35.7000 125.500 1000 tokyo main 90 34 _O____________ -1 35.7000 125.500 2 1000 0 0 0 18 15
1964184N22133 1964 39 WP MM BETTY 1964-07-07 03:00:00 TS 36.5600 125.767 main 28 26 _P____________ -1 36.5600 125.767 2 1001 0 0 18 13
1964184N22133 1964 39 WP MM BETTY 1964-07-07 06:00:00 ET 37.4000 126.000 1002 tokyo main 34 _O____________ -1 37.4000 126.000 6 1002 0 0 0 17 13

Digital Typhoon Data and Search

About IBTrACS Database

This database is a web-friendly format of International Best Track Archive for Climate Stewardship (IBTrACS), a global best track data archive curated by NOAA dating back to 1842.

Updated: 2021-10-21